KMOR/MOR METAR and TAF weather

Enter ICAO airport designator
Station Type Date Time Source
KMOR METAR 2021/06/15 07:20 UTC NOAA

KMOR 150720Z AUTO 33007KT 10SM SCT055 BKN065 BKN075 24/18 A2991 RMK A01


Station Type Date Time Source
KMOR Decoded METAR 2021/06/15 07:20 UTC NOAA

Station name not available
Jun 15, 2021 - 03:20 AM EDT / 2021.06.15 0720 UTC
Wind: from the NNW (330 degrees) at 8 MPH (7 KT):0
Visibility: 10 mile(s):0
Sky conditions: mostly cloudy
Temperature: 75 F (24 C)
Dew Point: 64 F (18 C)
Relative Humidity: 69%
Pressure (altimeter): 29.91 in. Hg (1012 hPa)
ob: KMOR 150720Z AUTO 33007KT 10SM SCT055 BKN065 BKN075 24/18 A2991 RMK A01
cycle: 7

Station Type Date Time Source
KMOR TAF UTC NOAA

Error!

Example: see airport list